Time;durP1;ratioP1;P1;durP2;ratioP2;P2;SDS_P1;SDS_P2;PMS_P1;PMS_P2;Temp;Humidity;BMP_temperature;BMP_pressure;BME280_temperature;BME280_humidity;BME280_pressure;Samples;Min_cycle;Max_cycle;Signal;HPM_P1;HPM_P2
2023/04/09 00:02:09;;;;;;;;;30.75;30.75;;;;;11.93;54.83;101931.72;6277880;22;45287;-67
2023/04/09 00:04:35;;;;;;;;;31.25;28.25;;;;;11.87;55.11;101915.72;6278118;22;45462;-67
2023/04/09 00:07:00;;;;;;;;;26.50;24.00;;;;;11.95;55.36;101931.69;6277247;22;45484;-67
2023/04/09 00:09:25;;;;;;;;;25.50;25.00;;;;;11.92;55.51;101923.72;6275235;22;46823;-67
2023/04/09 00:11:51;;;;;;;;;26.25;23.00;;;;;11.91;55.46;101924.56;6276830;22;45462;-67
2023/04/09 00:14:16;;;;;;;;;30.50;27.00;;;;;11.90;55.32;101929.06;6276434;22;45318;-67
2023/04/09 00:16:41;;;;;;;;;18.50;17.00;;;;;11.85;55.24;101920.22;6249018;22;56284;-67
2023/04/09 00:19:06;;;;;;;;;32.75;27.75;;;;;11.84;55.01;101915.78;6277279;22;45921;-67
2023/04/09 00:21:32;;;;;;;;;29.75;26.50;;;;;11.84;55.62;101916.69;6275447;22;48000;-67
2023/04/09 00:23:57;;;;;;;;;29.50;26.25;;;;;11.92;55.82;101924.59;6249521;22;45529;-67
2023/04/09 00:26:23;;;;;;;;;35.75;28.00;;;;;11.87;55.66;101905.03;6277509;22;45515;-67
2023/04/09 00:28:48;;;;;;;;;34.25;26.25;;;;;11.94;55.82;101920.06;6276548;22;46130;-67
2023/04/09 00:31:13;;;;;;;;;27.25;26.25;;;;;11.88;55.54;101904.13;6277614;22;45319;-67
2023/04/09 00:33:39;;;;;;;;;34.25;30.00;;;;;11.94;55.58;101914.72;6277948;22;45397;-67
2023/04/09 00:36:04;;;;;;;;;26.75;22.75;;;;;11.99;55.82;101911.97;6276403;22;45437;-67
2023/04/09 00:38:30;;;;;;;;;30.00;26.75;;;;;11.93;55.65;101909.41;6275947;22;45276;-67
2023/04/09 00:40:56;;;;;;;;;28.75;23.25;;;;;11.94;55.97;101911.19;6277445;22;45228;-67
2023/04/09 00:43:21;;;;;;;;;31.75;29.25;;;;;11.98;55.75;101915.56;6277355;22;45791;-67
2023/04/09 00:45:46;;;;;;;;;27.50;27.00;;;;;11.93;55.98;101904.94;6277855;22;45168;-67
2023/04/09 00:48:12;;;;;;;;;30.25;27.50;;;;;11.95;56.27;101897.78;6276730;22;45376;-67
2023/04/09 00:50:38;;;;;;;;;28.00;26.50;;;;;12.00;55.71;101909.25;6277431;22;45300;-67
2023/04/09 00:53:04;;;;;;;;;31.75;25.75;;;;;12.00;55.73;101911.06;6277303;22;45215;-67
2023/04/09 00:55:30;;;;;;;;;27.50;23.75;;;;;11.94;56.07;101913.84;6277098;22;45426;-67
2023/04/09 00:57:55;;;;;;;;;28.50;28.00;;;;;11.92;55.93;101913.00;6248914;22;46388;-67
2023/04/09 01:00:20;;;;;;;;;32.50;29.50;;;;;11.92;56.20;101910.34;6277504;22;45232;-67
2023/04/09 01:02:47;;;;;;;;;29.75;27.50;;;;;11.86;55.99;101906.84;6277524;22;45569;-67
2023/04/09 01:05:13;;;;;;;;;29.25;25.75;;;;;11.91;56.16;101914.81;6277685;22;45398;-67
2023/04/09 01:07:45;;;;;;;;;29.25;25.25;;;;;11.93;56.16;101906.72;6274209;22;47388;-67
2023/04/09 01:10:23;;;;;;;;;27.00;27.00;;;;;11.87;56.04;101900.53;6276252;22;45247;-67
2023/04/09 01:13:06;;;;;;;;;28.75;26.00;;;;;11.97;56.58;101900.41;6276713;22;45418;-67
2023/04/09 01:15:36;;;;;;;;;31.75;29.00;;;;;11.99;56.56;101906.63;6275917;22;45335;-67
2023/04/09 01:18:07;;;;;;;;;28.00;27.25;;;;;11.96;56.36;101898.63;6276686;22;45689;-67
2023/04/09 01:20:39;;;;;;;;;29.25;25.25;;;;;11.96;56.61;101899.53;6249172;22;45260;-67
2023/04/09 01:23:33;;;;;;;;;30.25;30.25;;;;;11.98;56.38;101902.19;6277091;22;45264;-67
2023/04/09 01:26:27;;;;;;;;;28.75;27.50;;;;;11.96;56.57;101902.22;6277427;22;45384;-67
2023/04/09 01:28:54;;;;;;;;;32.00;27.00;;;;;11.95;56.58;101895.09;6276805;22;46139;-67
2023/04/09 01:31:26;;;;;;;;;33.00;28.25;;;;;11.95;56.42;101900.44;6277600;22;45651;-67
2023/04/09 01:33:52;;;;;;;;;34.75;31.50;;;;;11.94;56.59;101895.13;6276498;22;45260;-67
2023/04/09 01:36:19;;;;;;;;;31.00;28.50;;;;;11.85;56.85;101877.44;6276661;22;45551;-67
2023/04/09 01:38:49;;;;;;;;;29.00;25.75;;;;;11.96;56.66;101893.28;6276633;22;47076;-67
2023/04/09 01:41:18;;;;;;;;;33.50;30.00;;;;;11.95;56.42;101895.09;6277203;22;45598;-67
2023/04/09 01:43:45;;;;;;;;;32.75;30.75;;;;;11.94;56.73;101890.66;6277205;22;45193;-67
2023/04/09 01:46:11;;;;;;;;;30.75;30.75;;;;;11.97;56.73;101895.06;6276756;22;45263;-67
2023/04/09 01:48:37;;;;;;;;;29.25;27.00;;;;;11.97;56.53;101901.28;6276366;22;46282;-67
2023/04/09 01:51:03;;;;;;;;;29.75;25.50;;;;;11.96;56.79;101888.84;6274762;22;45428;-67
2023/04/09 01:53:29;;;;;;;;;32.25;29.00;;;;;11.91;56.44;101879.09;6276963;22;45366;-67
2023/04/09 01:55:55;;;;;;;;;27.25;26.00;;;;;11.97;56.83;101893.25;6276796;22;45473;-67
2023/04/09 01:58:21;;;;;;;;;26.25;24.00;;;;;11.98;56.92;101891.50;6275937;22;45276;-67
2023/04/09 02:00:47;;;;;;;;;31.25;30.50;;;;;11.95;56.60;101880.84;6276339;22;45258;-67
2023/04/09 02:03:45;;;;;;;;;32.00;25.75;;;;;11.95;56.79;101878.16;6277220;22;45174;-67
2023/04/09 02:06:16;;;;;;;;;23.75;23.00;;;;;11.96;56.56;101883.50;6244332;22;45810;-67
2023/04/09 02:08:45;;;;;;;;;35.25;29.25;;;;;11.95;56.93;101881.72;6274593;22;48133;-67
2023/04/09 02:11:12;;;;;;;;;35.75;30.00;;;;;11.95;56.54;101876.38;6276476;22;45575;-67
2023/04/09 02:13:40;;;;;;;;;30.00;27.25;;;;;11.84;56.60;101860.50;6275948;22;45322;-67
2023/04/09 02:16:06;;;;;;;;;29.50;27.50;;;;;11.93;56.77;101872.84;6276664;22;45434;-67
2023/04/09 02:18:31;;;;;;;;;22.00;20.75;;;;;11.92;56.59;101873.75;6248788;22;47394;-67
2023/04/09 02:20:58;;;;;;;;;26.00;24.25;;;;;11.93;56.67;101869.25;6274768;22;45331;-67
2023/04/09 02:23:24;;;;;;;;;28.00;23.00;;;;;11.95;56.84;101875.50;6276927;22;45265;-67
2023/04/09 02:25:51;;;;;;;;;33.00;30.50;;;;;11.94;56.87;101871.03;6276686;22;45227;-68
2023/04/09 02:28:17;;;;;;;;;27.50;19.75;;;;;11.93;56.68;101870.16;6275648;22;45387;-67
2023/04/09 02:30:42;;;;;;;;;29.25;26.00;;;;;11.87;56.73;101855.06;6276387;22;45248;-67
2023/04/09 02:33:08;;;;;;;;;29.00;25.75;;;;;11.79;56.72;101838.28;6276961;22;45442;-67
2023/04/09 02:35:33;;;;;;;;;27.50;25.00;;;;;11.76;56.90;101833.03;6276142;22;45595;-67
2023/04/09 02:37:59;;;;;;;;;26.25;25.75;;;;;11.78;57.16;101833.88;6276533;22;45407;-67
2023/04/09 02:40:24;;;;;;;;;25.25;24.00;;;;;11.82;56.97;101843.56;6273897;22;45556;-67
2023/04/09 02:42:51;;;;;;;;;29.00;26.75;;;;;11.86;56.82;101844.41;6276425;22;45293;-67
2023/04/09 02:45:17;;;;;;;;;25.75;24.50;;;;;11.85;56.94;101848.00;6276963;22;45285;-67
2023/04/09 02:47:42;;;;;;;;;29.00;26.50;;;;;11.79;56.99;101840.97;6248449;22;46495;-67
2023/04/09 02:50:07;;;;;;;;;30.50;26.75;;;;;11.88;56.89;101853.28;6276148;22;49827;-67
2023/04/09 02:52:33;;;;;;;;;28.25;24.00;;;;;11.79;56.89;101840.09;6278422;22;45221;-67
2023/04/09 02:54:58;;;;;;;;;24.75;24.75;;;;;11.84;57.20;101849.81;6249741;22;45434;-67
2023/04/09 02:57:23;;;;;;;;;29.50;27.00;;;;;11.70;57.10;101818.88;6277256;22;45163;-67
2023/04/09 02:59:49;;;;;;;;;30.50;27.50;;;;;11.79;57.26;101834.75;6277983;22;45280;-67
2023/04/09 03:02:14;;;;;;;;;26.50;25.50;;;;;11.86;56.91;101858.66;6276343;22;45350;-67
2023/04/09 03:04:39;;;;;;;;;31.50;29.25;;;;;11.84;57.26;101841.78;6278299;22;45447;-67
2023/04/09 03:07:05;;;;;;;;;31.75;27.00;;;;;11.82;57.15;101840.03;6277444;22;55510;-67
2023/04/09 03:09:30;;;;;;;;;32.25;26.50;;;;;11.76;57.03;101833.03;6277476;22;45189;-67
2023/04/09 03:11:56;;;;;;;;;30.75;26.75;;;;;11.80;57.23;101842.72;6277005;22;45240;-67
2023/04/09 03:14:25;;;;;;;;;30.25;27.75;;;;;11.80;56.82;101839.19;6277417;22;45335;-67
2023/04/09 03:16:50;;;;;;;;;36.75;30.25;;;;;11.77;57.35;101829.41;6277851;22;45572;-67
2023/04/09 03:19:15;;;;;;;;;27.75;25.50;;;;;11.78;57.15;101836.53;6278089;22;45285;-67
2023/04/09 03:21:41;;;;;;;;;30.75;30.75;;;;;11.75;57.21;101831.25;6278079;22;45586;-67
2023/04/09 03:24:06;;;;;;;;;28.00;27.75;;;;;11.70;57.32;101827.78;6250386;22;45262;-67
2023/04/09 03:26:35;;;;;;;;;23.25;21.50;;;;;11.69;57.51;101828.69;6276942;22;50736;-67
2023/04/09 03:29:03;;;;;;;;;35.00;29.00;;;;;11.62;57.31;101814.53;6275452;22;45594;-67
2023/04/09 03:31:28;;;;;;;;;31.25;29.50;;;;;11.70;57.50;101834.94;6278317;22;45419;-67
2023/04/09 03:33:54;;;;;;;;;26.25;26.00;;;;;11.64;57.43;101819.88;6277901;22;45311;-67
2023/04/09 03:36:19;;;;;;;;;32.25;32.00;;;;;11.73;57.50;101833.06;6276752;22;46831;-67
2023/04/09 03:38:44;;;;;;;;;37.75;33.25;;;;;11.65;57.74;101818.97;6277657;22;45306;-67
2023/04/09 03:41:10;;;;;;;;;30.00;28.00;;;;;11.73;57.46;101830.41;6277981;22;45576;-67
2023/04/09 03:43:35;;;;;;;;;31.25;29.25;;;;;11.72;57.47;101825.94;6277188;22;45343;-67
2023/04/09 03:46:00;;;;;;;;;35.25;29.75;;;;;11.70;57.41;101821.56;6249729;22;46592;-67
2023/04/09 03:48:26;;;;;;;;;38.00;28.25;;;;;11.66;58.00;101826.06;6277158;22;45425;-67
2023/04/09 03:50:52;;;;;;;;;34.50;31.75;;;;;11.56;57.70;101803.09;6277842;22;45191;-67
2023/04/09 03:53:18;;;;;;;;;33.50;30.75;;;;;11.57;57.54;101810.22;6278063;22;45260;-67
2023/04/09 03:55:43;;;;;;;;;31.00;29.50;;;;;11.59;57.86;101819.06;6277604;22;46169;-67
2023/04/09 03:58:08;;;;;;;;;31.25;29.50;;;;;11.58;57.54;101828.91;6276879;22;45314;-67
2023/04/09 04:00:33;;;;;;;;;32.25;30.00;;;;;11.55;57.86;101814.72;6249990;22;50970;-67
2023/04/09 04:02:59;;;;;;;;;32.50;29.25;;;;;11.56;57.83;101819.13;6274843;22;45715;-67
2023/04/09 04:05:25;;;;;;;;;31.25;28.00;;;;;11.56;57.67;101811.13;6277333;22;46470;-67
2023/04/09 04:07:50;;;;;;;;;34.75;30.75;;;;;11.49;58.11;101813.94;6277247;22;45401;-67
2023/04/09 04:10:15;;;;;;;;;32.25;29.50;;;;;11.50;57.72;101815.66;6277735;22;45236;-67
2023/04/09 04:12:41;;;;;;;;;37.00;32.50;;;;;11.45;57.84;101809.53;6277463;22;45633;-67
2023/04/09 04:15:07;;;;;;;;;30.75;29.50;;;;;11.34;57.80;101794.59;6277591;22;45921;-67
2023/04/09 04:17:32;;;;;;;;;29.00;26.00;;;;;11.35;57.50;101809.75;6249255;22;45310;-67
2023/04/09 04:19:57;;;;;;;;;27.50;23.00;;;;;11.15;57.82;101776.25;6277969;22;45346;-67
2023/04/09 04:22:23;;;;;;;;;31.50;30.00;;;;;11.29;58.29;101805.38;6277934;22;45389;-67
2023/04/09 04:24:48;;;;;;;;;33.75;26.00;;;;;11.32;58.16;101806.19;6277433;22;52026;-67
2023/04/09 04:27:13;;;;;;;;;35.25;30.75;;;;;11.32;58.53;101800.84;6274934;22;50467;-67
2023/04/09 04:29:38;;;;;;;;;30.00;29.50;;;;;11.26;58.22;101798.31;6277702;22;45404;-67
2023/04/09 04:32:04;;;;;;;;;35.50;27.25;;;;;11.31;58.48;101798.25;6277491;22;45464;-67
2023/04/09 04:34:29;;;;;;;;;29.25;29.00;;;;;11.29;58.49;101805.38;6277519;22;45356;-67
2023/04/09 04:36:55;;;;;;;;;27.50;26.00;;;;;11.35;58.29;101821.31;6277297;22;45526;-68
2023/04/09 04:39:20;;;;;;;;;29.75;26.25;;;;;11.33;58.52;101823.13;6277658;22;45271;-67
2023/04/09 04:41:45;;;;;;;;;34.00;29.50;;;;;11.32;58.47;101818.69;6249436;22;45345;-67
2023/04/09 04:44:11;;;;;;;;;34.00;31.25;;;;;11.23;58.46;101797.50;6277504;22;45380;-67
2023/04/09 04:46:36;;;;;;;;;28.25;28.25;;;;;11.29;58.40;101814.28;6277046;22;45239;-67
2023/04/09 04:49:01;;;;;;;;;32.25;28.25;;;;;11.26;58.77;101811.69;6276712;22;53267;-67
2023/04/09 04:51:30;;;;;;;;;37.75;31.00;;;;;11.31;58.27;101822.28;6249839;22;45248;-67
2023/04/09 04:53:55;;;;;;;;;33.00;28.50;;;;;11.28;58.21;101823.22;6276568;22;46937;-67
2023/04/09 04:56:20;;;;;;;;;33.00;30.50;;;;;11.25;58.29;101812.56;6274651;22;45251;-67
2023/04/09 04:58:46;;;;;;;;;31.75;29.75;;;;;11.25;58.61;101822.41;6277382;22;45410;-67
2023/04/09 05:01:11;;;;;;;;;38.25;33.75;;;;;11.20;58.88;101822.47;6276891;22;45416;-67
2023/04/09 05:03:36;;;;;;;;;30.25;26.75;;;;;11.19;58.61;101825.16;6277386;22;45327;-67
2023/04/09 05:06:02;;;;;;;;;32.50;30.75;;;;;11.20;58.83;101834.97;6277323;22;45288;-67
2023/04/09 05:08:27;;;;;;;;;35.00;32.00;;;;;11.16;59.43;101825.22;6275170;22;45286;-67
2023/04/09 05:10:54;;;;;;;;;35.25;32.50;;;;;11.19;59.00;101835.84;6277215;22;45375;-67
2023/04/09 05:13:20;;;;;;;;;36.00;31.25;;;;;11.19;58.91;101830.50;6248432;22;47694;-67
2023/04/09 05:15:45;;;;;;;;;29.50;29.25;;;;;11.20;58.95;101834.97;6277496;22;45288;-67
2023/04/09 05:18:11;;;;;;;;;38.25;32.50;;;;;11.18;58.84;101840.31;6277168;22;49841;-67
2023/04/09 05:20:36;;;;;;;;;38.00;33.75;;;;;11.16;58.94;101835.91;6277469;22;45429;-67
2023/04/09 05:23:02;;;;;;;;;33.00;29.00;;;;;11.15;58.88;101834.16;6277407;22;45225;-67
2023/04/09 05:25:27;;;;;;;;;33.25;28.00;;;;;11.12;58.93;101830.59;6276810;22;45287;-67
2023/04/09 05:27:52;;;;;;;;;30.75;27.75;;;;;11.07;59.44;101824.47;6273990;22;45280;-67
2023/04/09 05:30:18;;;;;;;;;29.00;26.25;;;;;11.13;59.55;101837.72;6276426;22;50091;-67
2023/04/09 05:32:43;;;;;;;;;36.00;32.50;;;;;11.08;59.40;101828.91;6249139;22;48427;-67
2023/04/09 05:35:08;;;;;;;;;40.00;36.25;;;;;11.06;59.22;101830.72;6277232;22;45256;-67
2023/04/09 05:37:34;;;;;;;;;32.00;30.00;;;;;11.11;59.03;101838.69;6277334;22;45180;-68
2023/04/09 05:39:59;;;;;;;;;37.50;31.50;;;;;11.13;59.37;101843.06;6276839;22;45315;-67
2023/04/09 05:42:25;;;;;;;;;34.25;31.25;;;;;11.06;59.16;101837.84;6276979;22;45686;-67
2023/04/09 05:44:50;;;;;;;;;39.75;33.50;;;;;11.06;59.53;101838.75;6276707;22;45234;-67
2023/04/09 05:47:16;;;;;;;;;32.75;30.75;;;;;11.12;59.50;101851.97;6277440;22;45308;-67
2023/04/09 05:49:41;;;;;;;;;38.00;31.75;;;;;11.13;59.81;101847.53;6276350;22;45271;-67
2023/04/09 05:52:07;;;;;;;;;43.25;36.50;;;;;11.10;59.81;101851.13;6276656;22;49390;-67
2023/04/09 05:54:32;;;;;;;;;30.50;27.75;;;;;11.07;59.49;101842.28;6275363;22;45337;-67
2023/04/09 05:56:57;;;;;;;;;32.75;29.75;;;;;11.10;59.89;101851.13;6276075;22;45417;-67
2023/04/09 05:59:22;;;;;;;;;32.25;29.25;;;;;11.05;60.03;101842.31;6274949;22;50559;-67
2023/04/09 06:01:48;;;;;;;;;23.25;22.75;;;;;11.12;59.91;101851.97;6276837;22;45851;-67
2023/04/09 06:04:13;;;;;;;;;44.00;33.75;;;;;11.11;59.96;101850.25;6276908;22;45355;-67
2023/04/09 06:06:38;;;;;;;;;32.75;28.25;;;;;11.12;60.42;101854.66;6276321;22;45252;-67
2023/04/09 06:09:04;;;;;;;;;37.00;34.25;;;;;11.05;60.44;101850.34;6275815;22;45317;-67
2023/04/09 06:11:30;;;;;;;;;33.50;32.25;;;;;11.11;60.06;101863.59;6276110;22;45356;-67
2023/04/09 06:13:56;;;;;;;;;34.75;33.25;;;;;11.11;59.99;101866.28;6276153;22;45303;-67
2023/04/09 06:16:21;;;;;;;;;37.50;32.00;;;;;11.07;60.12;101859.19;6276977;22;45299;-66
2023/04/09 06:18:49;;;;;;;;;38.25;33.25;;;;;11.04;60.25;101853.94;6274944;22;45260;-66
2023/04/09 06:21:14;;;;;;;;;42.00;36.25;;;;;11.10;60.43;101858.28;6275354;22;46948;-66
2023/04/09 06:23:40;;;;;;;;;37.50;33.50;;;;;11.10;60.17;101866.28;6276736;22;45240;-66
2023/04/09 06:26:05;;;;;;;;;37.25;32.75;;;;;11.09;60.55;101861.84;6275882;22;45504;-67
2023/04/09 06:28:32;;;;;;;;;36.00;31.75;;;;;11.00;60.50;101854.88;6249478;22;45443;-68
2023/04/09 06:30:57;;;;;;;;;41.75;34.00;;;;;11.07;60.41;101866.34;6278113;22;45401;-66
2023/04/09 06:33:23;;;;;;;;;35.50;32.50;;;;;10.79;60.71;101816.03;6249965;22;45291;-68
2023/04/09 06:35:48;;;;;;;;;39.75;33.75;;;;;11.01;61.02;101848.63;6276373;22;45356;-67
2023/04/09 06:38:14;;;;;;;;;39.00;35.25;;;;;11.03;60.92;101854.81;6277518;22;45553;-67
2023/04/09 06:40:40;;;;;;;;;34.00;31.75;;;;;11.07;60.75;101856.53;6250234;22;47062;-66
2023/04/09 06:43:06;;;;;;;;;46.75;37.00;;;;;11.14;61.00;101868.00;6277600;22;45414;-67
2023/04/09 06:45:32;;;;;;;;;43.75;36.25;;;;;11.07;60.73;101851.19;6277604;22;45327;-67
2023/04/09 06:47:58;;;;;;;;;48.50;36.50;;;;;10.98;60.91;101838.00;6277070;22;45418;-66
2023/04/09 06:50:23;;;;;;;;;43.50;36.50;;;;;11.16;60.47;101863.53;6277636;22;45327;-67
2023/04/09 06:52:50;;;;;;;;;40.75;34.75;;;;;11.19;60.86;101862.56;6276059;22;45239;-68
2023/04/09 06:55:15;;;;;;;;;46.50;38.25;;;;;11.00;60.88;101828.16;6277238;22;45312;-67
2023/04/09 06:57:41;;;;;;;;;44.00;37.00;;;;;11.21;60.77;101860.75;6249909;22;45422;-68
2023/04/09 07:00:07;;;;;;;;;45.75;38.25;;;;;11.18;60.85;101852.81;6249226;22;52209;-67
2023/04/09 07:02:33;;;;;;;;;38.50;34.50;;;;;11.31;60.65;101875.75;6276045;22;45342;-67
2023/04/09 07:04:58;;;;;;;;;43.00;36.50;;;;;11.24;60.84;101863.38;6277968;22;45462;-67
2023/04/09 07:07:24;;;;;;;;;34.75;30.50;;;;;11.25;60.75;101850.00;6248720;22;45410;-67
2023/04/09 07:09:49;;;;;;;;;44.00;36.25;;;;;11.29;60.97;101858.84;6276000;22;46509;-68
2023/04/09 07:12:25;;;;;;;;;35.00;33.50;;;;;11.44;60.53;101874.63;6276481;22;45455;-67
2023/04/09 07:14:50;;;;;;;;;45.00;36.50;;;;;11.39;60.88;101862.22;6249536;22;45358;-66
2023/04/09 07:17:16;;;;;;;;;34.25;33.25;;;;;11.38;60.44;101857.81;6277891;22;45333;-67
2023/04/09 07:19:41;;;;;;;;;40.25;34.00;;;;;11.50;60.25;101874.50;6276982;22;63049;-67
2023/04/09 07:22:06;;;;;;;;;43.00;35.00;;;;;11.52;60.29;101877.16;6277303;22;59258;-66
2023/04/09 07:24:32;;;;;;;;;41.25;35.25;;;;;11.45;60.43;101859.47;6277502;22;50181;-66
2023/04/09 07:26:57;;;;;;;;;50.50;38.75;;;;;11.57;60.55;101879.75;6277310;22;45244;-66
2023/04/09 07:29:22;;;;;;;;;42.50;36.00;;;;;11.60;59.97;101874.34;6277533;22;52806;-68
2023/04/09 07:31:47;;;;;;;;;42.50;35.75;;;;;11.67;60.17;101876.84;6276839;22;60214;-67
2023/04/09 07:34:13;;;;;;;;;38.00;33.50;;;;;11.70;60.23;101869.72;6276229;22;45948;-67
2023/04/09 07:36:39;;;;;;;;;39.25;33.75;;;;;11.73;60.36;101867.84;6277196;22;45362;-67
2023/04/09 07:39:05;;;;;;;;;45.00;37.75;;;;;11.78;60.48;101873.13;6277437;22;46315;-68
2023/04/09 07:41:30;;;;;;;;;39.50;35.00;;;;;11.79;60.13;101870.38;6275763;22;50987;-67
2023/04/09 07:43:55;;;;;;;;;37.50;33.25;;;;;11.82;60.50;101873.00;6276418;22;45268;-67
2023/04/09 07:46:21;;;;;;;;;41.25;37.00;;;;;11.80;59.92;101856.09;6249664;22;51119;-67
2023/04/09 07:48:48;;;;;;;;;39.75;36.75;;;;;11.95;60.13;101880.84;6277311;22;45391;-67
2023/04/09 07:51:14;;;;;;;;;39.75;34.25;;;;;12.00;59.75;101878.97;6277758;22;45679;-67
2023/04/09 07:53:39;;;;;;;;;38.50;34.75;;;;;12.05;59.83;101877.06;6277649;22;45410;-67
2023/04/09 07:56:05;;;;;;;;;40.50;33.00;;;;;12.12;59.82;101876.00;6277848;22;45401;-67
2023/04/09 07:58:31;;;;;;;;;43.00;35.25;;;;;12.12;59.51;101870.66;6276183;22;46195;-68
2023/04/09 08:00:56;;;;;;;;;33.00;30.50;;;;;12.16;59.46;101872.38;6268793;22;45769;-69
2023/04/09 08:03:22;;;;;;;;;44.25;36.25;;;;;12.19;59.83;101869.59;6275955;22;45542;-67
2023/04/09 08:05:47;;;;;;;;;44.50;38.00;;;;;12.20;59.34;101871.38;6275855;22;45634;-68
2023/04/09 08:08:12;;;;;;;;;48.75;36.00;;;;;12.27;59.25;101866.78;6275297;22;45993;-68
2023/04/09 08:10:38;;;;;;;;;38.50;34.00;;;;;12.34;59.22;101870.22;6275354;22;45293;-66
2023/04/09 08:13:03;;;;;;;;;48.25;36.25;;;;;12.41;59.94;101871.81;6275502;22;45224;-66
2023/04/09 08:15:28;;;;;;;;;41.75;36.00;;;;;12.45;58.81;101884.25;6275943;22;46322;-67
2023/04/09 08:17:54;;;;;;;;;37.50;33.25;;;;;12.51;59.08;101876.09;6275948;22;45839;-68
2023/04/09 08:20:19;;;;;;;;;38.75;35.00;;;;;12.59;59.01;101876.78;6275363;22;45376;-70
2023/04/09 08:22:44;;;;;;;;;43.25;36.50;;;;;12.66;59.13;101882.88;6276194;22;45379;-70
2023/04/09 08:25:10;;;;;;;;;43.00;35.50;;;;;12.67;59.23;101873.94;6246959;22;45634;-70
2023/04/09 08:27:35;;;;;;;;;42.25;36.00;;;;;12.73;59.24;101868.44;6274926;22;45725;-70
2023/04/09 08:30:02;;;;;;;;;39.50;35.00;;;;;12.74;58.83;101861.28;6275059;22;45452;-70
2023/04/09 08:32:28;;;;;;;;;35.50;33.25;;;;;12.81;58.63;101860.19;6276221;22;45339;-70
2023/04/09 08:34:53;;;;;;;;;40.00;35.50;;;;;12.91;58.46;101875.16;6277288;22;45400;-70
2023/04/09 08:37:18;;;;;;;;;34.50;33.50;;;;;12.96;58.52;101872.34;6276160;22;47014;-70
2023/04/09 08:39:43;;;;;;;;;36.00;32.75;;;;;13.02;58.32;101869.53;6276507;22;53704;-67
2023/04/09 08:42:11;;;;;;;;;35.75;33.25;;;;;13.07;57.99;101866.75;6275073;22;50271;-67
2023/04/09 08:44:37;;;;;;;;;34.50;31.00;;;;;13.12;58.06;101862.16;6276726;22;45461;-66
2023/04/09 08:47:08;;;;;;;;;42.75;36.00;;;;;13.19;58.34;101862.88;6276297;22;45412;-68
2023/04/09 08:49:34;;;;;;;;;36.25;29.50;;;;;13.23;57.83;101860.06;6274494;22;45421;-67
2023/04/09 08:52:00;;;;;;;;;37.50;33.00;;;;;13.28;57.73;101862.63;6277653;22;45470;-67
2023/04/09 08:54:25;;;;;;;;;39.00;35.00;;;;;13.31;57.86;101852.72;6277250;22;45337;-67
2023/04/09 08:56:50;;;;;;;;;36.00;32.00;;;;;13.39;57.65;101863.25;6276144;22;45919;-67
2023/04/09 08:59:20;;;;;;;;;37.00;30.00;;;;;13.46;57.28;101861.28;6276285;22;50515;-67
2023/04/09 09:01:48;;;;;;;;;39.00;32.50;;;;;13.47;57.33;101852.34;6276254;22;45487;-67
2023/04/09 09:04:13;;;;;;;;;41.75;35.25;;;;;13.57;57.13;101852.97;6276558;22;45359;-67
2023/04/09 09:06:40;;;;;;;;;35.25;32.50;;;;;13.59;56.88;101846.63;6248798;22;46314;-67
2023/04/09 09:09:08;;;;;;;;;37.00;34.00;;;;;13.65;57.10;101851.84;6275796;22;45655;-67
2023/04/09 09:11:37;;;;;;;;;33.25;32.50;;;;;13.71;56.62;101843.63;6276632;22;45447;-67
2023/04/09 09:14:05;;;;;;;;;38.00;34.25;;;;;13.78;56.91;101840.75;6274319;22;45323;-67
2023/04/09 09:16:33;;;;;;;;;32.75;31.75;;;;;13.84;56.69;101837.91;6276143;22;45397;-72
2023/04/09 09:19:00;;;;;;;;;33.50;31.50;;;;;13.92;56.96;101843.06;6248199;22;45403;-72
2023/04/09 09:21:27;;;;;;;;;35.50;29.25;;;;;13.96;56.28;101837.53;6249608;22;45297;-72
2023/04/09 09:23:52;;;;;;;;;34.00;30.25;;;;;13.95;55.97;101838.47;6277198;22;45276;-72
2023/04/09 09:26:21;;;;;;;;;31.50;31.50;;;;;14.01;56.58;101842.78;6276508;22;45548;-72
2023/04/09 09:28:48;;;;;;;;;32.25;29.50;;;;;14.07;56.25;101842.63;6276820;22;45625;-72
2023/04/09 09:31:15;;;;;;;;;37.50;32.50;;;;;14.12;55.93;101845.16;6275175;22;45494;-72
2023/04/09 09:33:41;;;;;;;;;33.00;31.50;;;;;14.15;55.64;101845.94;6277158;22;45347;-72
2023/04/09 09:36:08;;;;;;;;;37.50;33.25;;;;;14.19;55.71;101841.38;6276749;22;45204;-72
2023/04/09 09:38:49;;;;;;;;;24.50;24.25;;;;;14.20;55.66;101822.53;6276802;22;45395;-72
2023/04/09 09:41:16;;;;;;;;;29.25;27.75;;;;;14.33;55.50;101828.38;6276609;22;45474;-73
2023/04/09 09:43:42;;;;;;;;;26.00;22.75;;;;;14.40;55.19;101829.97;6276072;22;45365;-72
2023/04/09 09:46:09;;;;;;;;;21.75;19.50;;;;;14.46;54.82;101819.00;6276461;22;45635;-71
2023/04/09 09:48:35;;;;;;;;;26.00;23.50;;;;;14.54;54.67;101820.59;6276307;22;45519;-73
2023/04/09 09:51:03;;;;;;;;;20.00;19.50;;;;;14.59;54.32;101816.00;6276339;22;45387;-69
2023/04/09 09:53:31;;;;;;;;;19.25;17.50;;;;;14.68;54.06;101813.00;6274997;22;45229;-71
2023/04/09 09:55:58;;;;;;;;;19.00;17.75;;;;;14.76;53.48;101812.75;6276854;22;45968;-72
2023/04/09 09:58:30;;;;;;;;;17.25;17.25;;;;;14.82;53.73;101813.44;6276451;22;45429;-73
2023/04/09 10:00:57;;;;;;;;;24.50;22.00;;;;;14.90;54.03;101812.28;6274629;22;45297;-72
2023/04/09 10:03:26;;;;;;;;;22.50;21.00;;;;;15.00;53.86;101809.25;6250026;22;45438;-70
2023/04/09 10:05:52;;;;;;;;;18.50;18.50;;;;;15.05;53.29;101806.41;6278012;22;45375;-79
2023/04/09 10:08:18;;;;;;;;;20.75;16.50;;;;;15.15;52.63;101806.94;6276876;22;45189;-70
2023/04/09 10:10:45;;;;;;;;;17.75;17.00;;;;;15.21;52.49;101808.56;6278281;22;45321;-69
2023/04/09 10:13:20;;;;;;;;;16.75;14.75;;;;;15.24;52.10;101806.63;6276996;22;45436;-69
2023/04/09 10:15:46;;;;;;;;;15.75;14.75;;;;;15.29;52.42;101804.66;6277564;22;46178;-69
2023/04/09 10:18:13;;;;;;;;;27.00;25.00;;;;;15.42;52.43;101809.59;6277828;22;45551;-61
2023/04/09 10:20:45;;;;;;;;;21.75;20.50;;;;;15.50;52.13;101810.22;6278077;22;45370;-64
2023/04/09 10:23:26;;;;;;;;;14.50;14.25;;;;;15.55;52.05;101809.13;6275472;22;45412;-66
2023/04/09 10:25:52;;;;;;;;;22.25;18.75;;;;;15.54;51.43;101795.72;6277711;22;45414;-66
2023/04/09 10:28:18;;;;;;;;;21.50;20.50;;;;;15.65;51.69;101801.59;6277145;22;45256;-65
2023/04/09 10:30:43;;;;;;;;;24.75;21.50;;;;;15.70;51.59;101801.41;6278114;22;45332;-65
2023/04/09 10:33:14;;;;;;;;;22.75;20.00;;;;;15.73;50.91;101794.09;6276565;22;45302;-66
2023/04/09 10:35:41;;;;;;;;;14.75;14.25;;;;;15.83;51.40;101801.88;6277309;22;45401;-66
2023/04/09 10:38:07;;;;;;;;;11.25;11.25;;;;;15.88;50.77;101807.97;6277663;22;45547;-66
2023/04/09 10:40:33;;;;;;;;;24.75;20.75;;;;;15.93;50.34;101811.34;6277768;22;45221;-66
2023/04/09 10:43:00;;;;;;;;;25.25;23.25;;;;;15.97;50.45;101798.66;6249184;22;46200;-66
2023/04/09 10:45:39;;;;;;;;;23.75;23.00;;;;;15.97;50.14;101793.25;6277373;22;46151;-65
2023/04/09 10:48:04;;;;;;;;;23.50;21.75;;;;;16.02;50.32;101786.78;6276676;22;45363;-65
2023/04/09 10:50:31;;;;;;;;;19.75;19.75;;;;;16.07;49.88;101781.19;6277454;22;45308;-66
2023/04/09 10:52:59;;;;;;;;;19.75;16.75;;;;;16.08;49.26;101775.75;6276977;22;45407;-66
2023/04/09 10:55:48;;;;;;;;;19.25;16.50;;;;;16.19;49.55;101772.66;6276285;22;47196;-65
2023/04/09 10:58:13;;;;;;;;;18.75;17.00;;;;;16.02;49.40;101738.31;6275111;22;45376;-65
2023/04/09 11:00:41;;;;;;;;;19.75;18.75;;;;;16.25;49.34;101772.38;6278107;22;45300;-66
2023/04/09 11:03:20;;;;;;;;;18.25;16.00;;;;;16.29;49.47;101773.16;6249185;22;45448;-65
2023/04/09 11:06:05;;;;;;;;;22.25;20.00;;;;;16.32;48.69;101775.72;6248480;22;47420;-68
2023/04/09 11:08:32;;;;;;;;;24.00;21.50;;;;;16.26;48.89;101765.19;6276296;22;45370;-66